createdAt,value
2018-09-23T00:00:47.356Z,12.87
2018-09-23T00:03:16.162Z,13.77
2018-09-23T00:05:44.949Z,13.47
2018-09-23T00:08:14.439Z,13.33
2018-09-23T00:10:43.712Z,15.20
2018-09-23T00:13:12.937Z,14.20
2018-09-23T00:15:45.330Z,14.00
2018-09-23T00:18:14.394Z,13.67
2018-09-23T00:20:43.531Z,15.77
2018-09-23T00:23:16.607Z,15.43
2018-09-23T00:25:46.260Z,15.97
2018-09-23T00:28:15.365Z,16.10
2018-09-23T00:30:44.984Z,17.70
2018-09-23T00:33:14.111Z,16.90
2018-09-23T00:35:43.105Z,17.70
2018-09-23T00:38:12.901Z,18.67
2018-09-23T00:40:41.862Z,20.17
2018-09-23T00:43:10.370Z,18.30
2018-09-23T00:45:39.723Z,17.63
2018-09-23T00:48:09.209Z,17.67
2018-09-23T00:50:38.417Z,18.93
2018-09-23T00:53:09.575Z,17.20
2018-09-23T00:55:38.582Z,17.47
2018-09-23T00:58:07.998Z,17.90
2018-09-23T01:00:37.038Z,17.43
2018-09-23T01:03:07.135Z,17.40
2018-09-23T01:05:36.274Z,16.30
2018-09-23T01:08:04.901Z,15.50
2018-09-23T01:10:34.080Z,15.97
2018-09-23T01:13:03.191Z,15.73
2018-09-23T01:15:33.146Z,14.50
2018-09-23T01:18:02.251Z,16.00
2018-09-23T01:20:31.342Z,15.53
2018-09-23T01:23:01.469Z,16.90
2018-09-23T01:25:30.498Z,15.33
2018-09-23T01:27:59.713Z,17.43
2018-09-23T01:30:30.649Z,16.47
2018-09-23T01:32:59.877Z,16.20
2018-09-23T01:35:28.999Z,17.73
2018-09-23T01:37:59.192Z,16.43
2018-09-23T01:40:28.313Z,16.63
2018-09-23T01:42:57.558Z,16.93
2018-09-23T01:45:28.320Z,17.80
2018-09-23T01:47:57.446Z,17.13
2018-09-23T01:50:26.428Z,17.97
2018-09-23T01:52:55.676Z,17.10
2018-09-23T01:55:24.926Z,17.80
2018-09-23T01:57:53.618Z,18.17
2018-09-23T02:00:24.178Z,18.03
2018-09-23T02:02:53.198Z,19.03
2018-09-23T02:05:22.336Z,17.83
2018-09-23T02:07:51.544Z,17.57
2018-09-23T02:10:20.774Z,16.90
2018-09-23T02:12:50.418Z,17.73
2018-09-23T02:15:19.500Z,17.53
2018-09-23T02:17:48.518Z,17.70
2018-09-23T02:20:19.142Z,18.10
2018-09-23T02:22:48.280Z,19.33
2018-09-23T02:25:17.465Z,17.47
2018-09-23T02:27:47.544Z,17.10
2018-09-23T02:30:17.580Z,18.20
2018-09-23T02:32:46.830Z,18.27
2018-09-23T02:35:19.572Z,18.10
2018-09-23T02:37:48.782Z,18.47
2018-09-23T02:40:17.903Z,17.23
2018-09-23T02:42:47.268Z,17.57
2018-09-23T02:45:16.094Z,18.30
2018-09-23T02:47:45.238Z,18.27
2018-09-23T02:50:14.376Z,18.53
2018-09-23T02:52:43.403Z,19.93
2018-09-23T02:55:12.475Z,18.67
2018-09-23T02:57:42.381Z,18.57
2018-09-23T03:00:11.735Z,17.97
2018-09-23T03:02:40.844Z,18.47
2018-09-23T03:05:09.883Z,17.73
2018-09-23T03:07:38.973Z,18.93
2018-09-23T03:10:08.078Z,18.07
2018-09-23T03:12:39.234Z,18.07
2018-09-23T03:15:08.347Z,19.60
2018-09-23T03:17:37.579Z,19.30
2018-09-23T03:20:06.697Z,18.37
2018-09-23T03:22:35.691Z,18.10
2018-09-23T03:25:05.106Z,19.43
2018-09-23T03:27:34.362Z,19.10
2018-09-23T03:30:03.542Z,18.97
2018-09-23T03:32:32.659Z,19.70
2018-09-23T03:35:04.383Z,20.10
2018-09-23T03:37:33.550Z,19.53
2018-09-23T03:40:02.630Z,17.97
2018-09-23T03:42:32.192Z,18.57
2018-09-23T03:45:01.393Z,18.87
2018-09-23T03:47:30.392Z,18.50
2018-09-23T03:50:00.153Z,19.20
2018-09-23T03:52:29.227Z,19.47
2018-09-23T03:54:58.453Z,19.10
2018-09-23T03:57:30.834Z,19.57
2018-09-23T04:00:00.409Z,20.70
2018-09-23T04:02:30.210Z,20.30
2018-09-23T04:05:01.557Z,19.53
2018-09-23T04:07:30.799Z,20.60
2018-09-23T04:09:59.787Z,21.10
2018-09-23T04:12:28.247Z,20.83
2018-09-23T04:14:57.109Z,20.67
2018-09-23T04:17:27.530Z,19.50
2018-09-23T04:19:56.853Z,21.07
2018-09-23T04:22:26.586Z,20.20
2018-09-23T04:24:56.661Z,21.90
2018-09-23T04:27:25.613Z,21.53
2018-09-23T04:29:54.824Z,20.10
2018-09-23T04:32:23.872Z,18.93
2018-09-23T04:34:52.959Z,19.40
2018-09-23T04:37:22.178Z,21.87
2018-09-23T04:39:52.737Z,21.40
2018-09-23T04:42:21.947Z,19.83
2018-09-23T04:44:50.785Z,20.53
2018-09-23T04:47:20.891Z,19.77
2018-09-23T04:49:50.002Z,19.47
2018-09-23T04:52:19.097Z,20.47
2018-09-23T04:54:48.244Z,20.60
2018-09-23T04:57:17.455Z,18.90
2018-09-23T04:59:46.567Z,20.07
2018-09-23T05:02:17.252Z,19.33
2018-09-23T05:04:46.404Z,20.70
2018-09-23T05:07:15.503Z,20.43
2018-09-23T05:09:45.563Z,20.30
2018-09-23T05:12:14.604Z,19.63
2018-09-23T05:14:43.566Z,20.03
2018-09-23T05:17:13.074Z,19.90
2018-09-23T05:19:42.197Z,22.13
2018-09-23T05:22:11.598Z,21.70
2018-09-23T05:24:43.126Z,19.13
2018-09-23T05:27:12.243Z,20.93
2018-09-23T05:29:41.424Z,19.70
2018-09-23T05:32:11.302Z,20.07
2018-09-23T05:34:40.472Z,21.43
2018-09-23T05:37:08.872Z,20.40
2018-09-23T05:39:38.522Z,19.90
2018-09-23T05:42:07.898Z,20.17
2018-09-23T05:44:37.029Z,21.40
2018-09-23T05:47:08.074Z,20.63
2018-09-23T05:49:37.215Z,19.13
2018-09-23T05:52:06.600Z,20.00
2018-09-23T05:54:36.714Z,20.83
2018-09-23T05:57:05.953Z,19.80
2018-09-23T05:59:35.049Z,20.40
2018-09-23T06:02:04.046Z,18.40
2018-09-23T06:04:33.130Z,19.40
2018-09-23T06:07:02.188Z,18.90
2018-09-23T06:09:31.696Z,18.47
2018-09-23T06:12:01.041Z,18.50
2018-09-23T06:14:30.058Z,17.00
2018-09-23T06:16:59.170Z,18.13
2018-09-23T06:19:28.187Z,17.40
2018-09-23T06:22:00.132Z,17.60
2018-09-23T06:24:29.290Z,16.87
2018-09-23T06:26:58.977Z,16.67
2018-09-23T06:29:28.721Z,16.57
2018-09-23T06:31:57.951Z,16.97
2018-09-23T06:34:27.793Z,15.97
2018-09-23T06:36:57.309Z,15.87
2018-09-23T06:39:27.022Z,17.00
2018-09-23T06:41:56.138Z,15.30
2018-09-23T06:44:25.273Z,14.50
2018-09-23T06:46:55.542Z,14.37
2018-09-23T06:49:26.807Z,15.37
2018-09-23T06:51:55.971Z,14.40
2018-09-23T06:54:25.047Z,14.80
2018-09-23T06:56:53.954Z,14.30
2018-09-23T06:59:23.004Z,13.50
2018-09-23T07:01:52.106Z,13.47
2018-09-23T07:04:21.364Z,13.70
2018-09-23T07:06:50.442Z,13.20
2018-09-23T07:09:19.657Z,14.13
2018-09-23T07:11:49.190Z,13.27
2018-09-23T07:14:18.504Z,12.00
2018-09-23T07:16:47.615Z,13.13
2018-09-23T07:19:16.623Z,12.03
2018-09-23T07:21:45.696Z,12.60
2018-09-23T07:24:14.814Z,12.20
2018-09-23T07:26:43.853Z,12.33
2018-09-23T07:29:12.869Z,12.90
2018-09-23T07:31:41.893Z,12.00
2018-09-23T07:34:10.751Z,10.43
2018-09-23T07:36:39.583Z,12.20
2018-09-23T07:39:09.400Z,12.57
2018-09-23T07:41:38.235Z,12.40
2018-09-23T07:44:07.385Z,12.30
2018-09-23T07:46:36.927Z,11.50
2018-09-23T07:49:05.966Z,11.17
2018-09-23T07:51:34.978Z,12.93
2018-09-23T07:54:04.519Z,11.97
2018-09-23T07:56:33.652Z,11.27
2018-09-23T07:59:02.745Z,14.87
2018-09-23T08:01:32.197Z,12.43
2018-09-23T08:04:01.202Z,12.63
2018-09-23T08:06:30.274Z,11.90
2018-09-23T08:08:59.535Z,12.80
2018-09-23T08:11:28.527Z,11.43
2018-09-23T08:13:57.918Z,11.00
2018-09-23T08:16:28.561Z,11.33
2018-09-23T08:18:57.451Z,13.57
2018-09-23T08:21:26.254Z,12.80
2018-09-23T08:23:55.720Z,11.00
2018-09-23T08:26:24.169Z,11.67
2018-09-23T08:28:52.925Z,12.03
2018-09-23T08:31:21.715Z,13.60
2018-09-23T08:33:50.473Z,11.80
2018-09-23T08:36:19.252Z,11.83
2018-09-23T08:38:52.049Z,11.23
2018-09-23T08:41:20.817Z,11.70
2018-09-23T08:43:49.667Z,12.87
2018-09-23T08:46:18.678Z,12.97
2018-09-23T08:48:47.592Z,12.10
2018-09-23T08:51:16.403Z,11.93
2018-09-23T08:53:45.488Z,11.70
2018-09-23T08:56:14.279Z,11.60
2018-09-23T08:58:43.073Z,12.70
2018-09-23T09:01:12.779Z,12.07
2018-09-23T09:03:41.618Z,18.77
2018-09-23T09:06:10.003Z,12.50
2018-09-23T09:08:39.351Z,12.13
2018-09-23T09:11:07.744Z,11.77
2018-09-23T09:13:36.540Z,12.00
2018-09-23T09:16:05.769Z,10.33
2018-09-23T09:18:34.693Z,12.30
2018-09-23T09:21:03.759Z,11.87
2018-09-23T09:23:32.587Z,11.30
2018-09-23T09:26:01.353Z,11.30
2018-09-23T09:28:30.198Z,10.80
2018-09-23T09:30:58.995Z,13.10
2018-09-23T09:33:27.797Z,11.60
2018-09-23T09:35:56.598Z,12.70
2018-09-23T09:38:25.458Z,11.30
2018-09-23T09:40:54.290Z,12.60
2018-09-23T09:43:25.015Z,11.40
2018-09-23T09:45:53.840Z,11.20
2018-09-23T09:48:22.641Z,12.67
2018-09-23T09:50:51.706Z,13.03
2018-09-23T09:53:20.637Z,11.20
2018-09-23T09:55:49.714Z,11.50
2018-09-23T09:58:19.333Z,10.97
2018-09-23T10:00:48.103Z,10.70
2018-09-23T10:03:17.022Z,11.93
2018-09-23T10:05:46.902Z,12.23
2018-09-23T10:08:15.705Z,11.30
2018-09-23T10:10:44.551Z,11.10
2018-09-23T10:13:13.716Z,12.90
2018-09-23T10:15:42.502Z,10.40
2018-09-23T10:18:11.293Z,11.17
2018-09-23T10:20:40.087Z,11.33
2018-09-23T10:23:08.946Z,10.67
2018-09-23T10:25:37.839Z,10.80
2018-09-23T10:28:06.900Z,10.83
2018-09-23T10:30:35.709Z,12.27
2018-09-23T10:33:04.587Z,11.87
2018-09-23T10:35:33.705Z,12.37
2018-09-23T10:38:02.522Z,11.50
2018-09-23T10:40:31.395Z,12.10
2018-09-23T10:43:01.863Z,11.67
2018-09-23T10:45:30.670Z,11.63
2018-09-23T10:47:59.469Z,12.33
2018-09-23T10:50:28.299Z,10.53
2018-09-23T10:52:57.093Z,10.60
2018-09-23T10:55:25.888Z,11.30
2018-09-23T10:57:55.382Z,10.83
2018-09-23T11:00:25.233Z,11.50
2018-09-23T11:02:54.422Z,14.50
2018-09-23T11:05:23.788Z,14.10
2018-09-23T11:07:52.863Z,13.60
2018-09-23T11:10:21.759Z,26.13
2018-09-23T11:12:50.895Z,13.60
2018-09-23T11:15:20.090Z,11.27
2018-09-23T11:17:49.908Z,12.27
2018-09-23T11:20:19.242Z,11.87
2018-09-23T11:22:48.346Z,10.93
2018-09-23T11:25:17.504Z,13.03
2018-09-23T11:27:46.683Z,11.87
2018-09-23T11:30:15.703Z,12.00
2018-09-23T11:32:45.049Z,11.87
2018-09-23T11:35:14.335Z,12.87
2018-09-23T11:37:43.319Z,12.63
2018-09-23T11:40:12.474Z,12.67
2018-09-23T11:42:41.006Z,14.77
2018-09-23T11:45:10.682Z,13.00
2018-09-23T11:47:40.220Z,13.90
2018-09-23T11:50:09.513Z,12.80
2018-09-23T11:52:38.311Z,18.33
2018-09-23T11:55:08.128Z,13.93
2018-09-23T11:57:36.983Z,16.33
2018-09-23T12:00:06.445Z,12.50
2018-09-23T12:02:40.624Z,13.80
2018-09-23T12:05:09.437Z,13.10
2018-09-23T12:07:38.224Z,13.23
2018-09-23T12:10:07.040Z,12.67
2018-09-23T12:12:36.033Z,11.83
2018-09-23T12:15:05.159Z,13.83
2018-09-23T12:17:34.627Z,13.00
2018-09-23T12:20:03.894Z,13.50
2018-09-23T12:22:33.016Z,12.00
2018-09-23T12:25:02.350Z,12.47
2018-09-23T12:27:30.941Z,12.63
2018-09-23T12:30:00.026Z,13.17
2018-09-23T12:32:29.266Z,13.90
2018-09-23T12:34:58.360Z,12.63
2018-09-23T12:37:27.566Z,15.27
2018-09-23T12:40:00.410Z,15.63
2018-09-23T12:42:29.392Z,13.40
2018-09-23T12:44:58.399Z,28.07
2018-09-23T12:47:27.545Z,13.00
2018-09-23T12:49:56.178Z,13.17
2018-09-23T12:52:25.226Z,16.17
2018-09-23T12:54:54.515Z,12.70
2018-09-23T12:57:23.560Z,17.30
2018-09-23T12:59:52.562Z,11.70
2018-09-23T13:02:21.494Z,16.60
2018-09-23T13:04:50.703Z,12.50
2018-09-23T13:07:19.798Z,16.40
2018-09-23T13:09:49.800Z,20.83
2018-09-23T13:12:18.948Z,15.07
2018-09-23T13:14:48.064Z,13.13
2018-09-23T13:17:17.288Z,13.37
2018-09-23T13:19:45.897Z,12.53
2018-09-23T13:22:15.405Z,11.47
2018-09-23T13:24:44.302Z,11.80
2018-09-23T13:27:13.414Z,13.00
2018-09-23T13:29:42.571Z,12.30
2018-09-23T13:32:11.847Z,12.60
2018-09-23T13:34:41.059Z,12.87
2018-09-23T13:37:11.028Z,13.80
2018-09-23T13:39:39.906Z,13.20
2018-09-23T13:42:08.706Z,12.50
2018-09-23T13:44:38.313Z,13.97
2018-09-23T13:47:08.080Z,14.37
2018-09-23T13:49:37.368Z,13.30
2018-09-23T13:52:09.978Z,12.13
2018-09-23T13:54:39.110Z,11.70
2018-09-23T13:57:08.299Z,11.40
2018-09-23T13:59:38.691Z,11.70
2018-09-23T14:02:07.875Z,12.33
2018-09-23T14:04:36.851Z,11.60
2018-09-23T14:07:06.878Z,13.17
2018-09-23T14:09:36.006Z,16.83
2018-09-23T14:12:05.456Z,14.37
2018-09-23T14:14:34.488Z,18.53
2018-09-23T14:17:03.673Z,17.80
2018-09-23T14:19:32.695Z,22.17
2018-09-23T14:22:01.810Z,14.70
2018-09-23T14:24:30.885Z,15.17
2018-09-23T14:27:00.110Z,12.33
2018-09-23T14:29:29.246Z,16.60
2018-09-23T14:31:58.456Z,14.40
2018-09-23T14:34:27.551Z,13.10
2018-09-23T14:36:57.926Z,15.30
2018-09-23T14:39:27.011Z,14.83
2018-09-23T14:41:57.193Z,16.90
2018-09-23T14:44:29.236Z,13.10
2018-09-23T14:46:58.329Z,13.23
2018-09-23T14:49:27.351Z,13.10
2018-09-23T14:51:56.641Z,13.50
2018-09-23T14:54:25.851Z,14.67
2018-09-23T14:56:54.894Z,13.63
2018-09-23T14:59:24.802Z,14.73
2018-09-23T15:01:54.034Z,20.03
2018-09-23T15:04:23.775Z,14.57
2018-09-23T15:06:54.018Z,13.83
2018-09-23T15:09:22.829Z,16.47
2018-09-23T15:11:51.645Z,14.73
2018-09-23T15:14:20.753Z,13.87
2018-09-23T15:16:49.845Z,16.60
2018-09-23T15:19:19.067Z,14.03
2018-09-23T15:21:48.330Z,15.90
2018-09-23T15:24:17.582Z,14.03
2018-09-23T15:26:46.637Z,18.77
2018-09-23T15:29:15.828Z,14.90
2018-09-23T15:31:45.034Z,14.80
2018-09-23T15:34:14.455Z,21.87
2018-09-23T15:36:43.324Z,14.80
2018-09-23T15:39:12.176Z,15.50
2018-09-23T15:41:40.897Z,14.73
2018-09-23T15:44:09.879Z,23.03
2018-09-23T15:46:39.110Z,15.27
2018-09-23T15:49:09.200Z,18.17
2018-09-23T15:51:38.451Z,15.43
2018-09-23T15:54:07.744Z,16.00
2018-09-23T15:56:38.064Z,26.97
2018-09-23T15:59:07.520Z,17.80
2018-09-23T16:01:36.539Z,17.67
2018-09-23T16:04:09.341Z,15.37
2018-09-23T16:06:38.476Z,15.83
2018-09-23T16:09:08.830Z,16.20
2018-09-23T16:11:38.126Z,20.70
2018-09-23T16:14:06.933Z,17.50
2018-09-23T16:16:35.926Z,15.03
2018-09-23T16:19:05.243Z,25.50
2018-09-23T16:21:34.355Z,15.90
2018-09-23T16:24:03.607Z,19.37
2018-09-23T16:26:36.165Z,16.90
2018-09-23T16:29:04.959Z,16.93
2018-09-23T16:31:33.738Z,22.33
2018-09-23T16:34:02.583Z,18.40
2018-09-23T16:36:31.620Z,24.80
2018-09-23T16:39:00.598Z,18.73
2018-09-23T16:41:29.866Z,20.07
2018-09-23T16:43:59.261Z,17.80
2018-09-23T16:46:27.844Z,18.50
2018-09-23T16:48:57.012Z,16.47
2018-09-23T16:51:26.159Z,16.97
2018-09-23T16:53:55.381Z,17.37
2018-09-23T16:56:26.366Z,17.37
2018-09-23T16:58:55.174Z,17.70
2018-09-23T17:01:24.168Z,17.27
2018-09-23T17:03:54.953Z,17.70
2018-09-23T17:06:23.803Z,16.43
2018-09-23T17:08:52.916Z,20.40
2018-09-23T17:11:22.365Z,19.23
2018-09-23T17:13:51.562Z,20.43
2018-09-23T17:16:20.998Z,20.57
2018-09-23T17:18:50.543Z,22.77
2018-09-23T17:21:19.643Z,23.20
2018-09-23T17:23:50.066Z,24.07
2018-09-23T17:26:19.276Z,25.70
2018-09-23T17:28:48.391Z,24.90
2018-09-23T17:31:17.743Z,24.30
2018-09-23T17:33:46.922Z,25.47
2018-09-23T17:36:15.585Z,22.63
2018-09-23T17:38:46.421Z,20.20
2018-09-23T17:41:16.575Z,19.90
2018-09-23T17:43:46.505Z,17.87
2018-09-23T17:46:15.655Z,17.37
2018-09-23T17:48:44.675Z,19.07
2018-09-23T17:51:14.524Z,20.37
2018-09-23T17:53:43.493Z,20.93
2018-09-23T17:56:12.627Z,19.87
2018-09-23T17:58:42.866Z,16.90
2018-09-23T18:01:11.989Z,18.50
2018-09-23T18:03:40.773Z,17.17
2018-09-23T18:06:12.079Z,17.70
2018-09-23T18:08:41.171Z,17.23
2018-09-23T18:11:10.250Z,17.90
2018-09-23T18:13:40.361Z,17.90
2018-09-23T18:16:09.519Z,17.90
2018-09-23T18:18:38.626Z,18.10
2018-09-23T18:21:09.310Z,18.57
2018-09-23T18:23:39.615Z,17.93
2018-09-23T18:26:09.344Z,18.03
2018-09-23T18:28:38.419Z,17.60
2018-09-23T18:31:07.780Z,17.10
2018-09-23T18:33:38.205Z,18.00
2018-09-23T18:36:07.435Z,18.00
2018-09-23T18:38:36.657Z,18.33
2018-09-23T18:41:05.285Z,19.80
2018-09-23T18:43:34.457Z,18.17
2018-09-23T18:46:04.245Z,18.37
2018-09-23T18:48:34.620Z,17.50
2018-09-23T18:51:03.849Z,17.93
2018-09-23T18:53:33.585Z,19.33
2018-09-23T18:56:05.192Z,18.60
2018-09-23T18:58:34.260Z,19.20
2018-09-23T19:01:03.478Z,20.63
2018-09-23T19:03:32.814Z,19.57
2018-09-23T19:06:01.896Z,19.03
2018-09-23T19:08:31.013Z,19.43
2018-09-23T19:11:00.500Z,18.23
2018-09-23T19:13:34.737Z,20.10
2018-09-23T19:16:10.291Z,19.10
2018-09-23T19:18:39.550Z,20.40
2018-09-23T19:21:08.733Z,20.20
2018-09-23T19:23:38.010Z,19.40
2018-09-23T19:26:07.290Z,19.63
2018-09-23T19:28:36.397Z,19.00
2018-09-23T19:31:05.737Z,19.20
2018-09-23T19:33:34.749Z,22.07
2018-09-23T19:36:04.448Z,20.00
2018-09-23T19:38:33.535Z,18.17
2018-09-23T19:41:02.798Z,17.27
2018-09-23T19:43:32.899Z,18.07
2018-09-23T19:46:02.762Z,17.20
2018-09-23T19:48:31.870Z,16.67
2018-09-23T19:51:00.902Z,18.43
2018-09-23T19:53:30.110Z,21.93
2018-09-23T19:55:58.714Z,16.47
2018-09-23T19:58:27.337Z,15.70
2018-09-23T20:00:56.300Z,17.20
2018-09-23T20:03:25.413Z,16.87
2018-09-23T20:05:55.307Z,16.00
2018-09-23T20:08:24.476Z,17.27
2018-09-23T20:10:53.582Z,18.00
2018-09-23T20:13:22.871Z,17.57
2018-09-23T20:15:52.052Z,16.77
2018-09-23T20:18:21.109Z,17.73
2018-09-23T20:20:50.361Z,16.43
2018-09-23T20:23:19.428Z,16.93
2018-09-23T20:25:48.470Z,16.77
2018-09-23T20:28:18.293Z,17.47
2018-09-23T20:30:47.375Z,16.93
2018-09-23T20:33:16.503Z,17.00
2018-09-23T20:35:45.825Z,15.70
2018-09-23T20:38:14.611Z,16.47
2018-09-23T20:40:43.416Z,16.70
2018-09-23T20:43:12.316Z,15.80
2018-09-23T20:45:41.137Z,18.20
2018-09-23T20:48:10.170Z,17.87
2018-09-23T20:50:40.680Z,16.90
2018-09-23T20:53:09.821Z,17.60
2018-09-23T20:55:39.056Z,17.00
2018-09-23T20:58:08.396Z,17.10
2018-09-23T21:00:37.522Z,17.13
2018-09-23T21:03:06.693Z,18.73
2018-09-23T21:05:37.225Z,17.50
2018-09-23T21:08:06.581Z,17.13
2018-09-23T21:10:35.557Z,17.30
2018-09-23T21:13:04.806Z,17.57
2018-09-23T21:15:33.995Z,17.00
2018-09-23T21:18:03.075Z,16.50
2018-09-23T21:20:33.337Z,18.30
2018-09-23T21:23:02.583Z,18.53
2018-09-23T21:25:31.674Z,18.30
2018-09-23T21:28:01.032Z,17.47
2018-09-23T21:30:30.104Z,17.90
2018-09-23T21:32:59.009Z,17.87
2018-09-23T21:35:27.937Z,18.43
2018-09-23T21:37:56.918Z,18.40
2018-09-23T21:40:26.493Z,18.97
2018-09-23T21:42:55.554Z,18.73
2018-09-23T21:45:24.788Z,19.40
2018-09-23T21:47:55.416Z,19.57
2018-09-23T21:50:24.745Z,20.17
2018-09-23T21:52:53.953Z,20.17
2018-09-23T21:55:24.805Z,20.63
2018-09-23T21:57:54.030Z,19.70
2018-09-23T22:00:23.206Z,19.17
2018-09-23T22:02:52.499Z,19.50
2018-09-23T22:05:21.684Z,21.00
2018-09-23T22:07:50.778Z,19.90
2018-09-23T22:10:20.131Z,19.30
2018-09-23T22:12:49.223Z,20.37
2018-09-23T22:15:25.649Z,19.60
2018-09-23T22:17:55.383Z,20.23
2018-09-23T22:20:25.208Z,19.53
2018-09-23T22:22:56.111Z,19.50
2018-09-23T22:25:25.129Z,20.17
2018-09-23T22:27:54.811Z,20.70
2018-09-23T22:30:24.002Z,19.40
2018-09-23T22:32:53.569Z,19.73
2018-09-23T22:35:22.799Z,18.80
2018-09-23T22:37:52.941Z,19.00
2018-09-23T22:40:22.163Z,19.87
2018-09-23T22:42:51.099Z,19.70
2018-09-23T22:45:20.377Z,19.60
2018-09-23T22:47:49.458Z,20.00
2018-09-23T22:50:22.565Z,20.00
2018-09-23T22:52:51.713Z,20.60
2018-09-23T22:55:20.934Z,19.73
2018-09-23T22:57:50.302Z,20.07
2018-09-23T23:00:18.875Z,19.13
2018-09-23T23:02:48.054Z,20.40
2018-09-23T23:05:17.595Z,21.17
2018-09-23T23:07:46.589Z,19.43
2018-09-23T23:10:15.800Z,18.77
2018-09-23T23:12:44.968Z,19.93
2018-09-23T23:15:13.783Z,19.03
2018-09-23T23:17:43.032Z,19.80
2018-09-23T23:20:12.168Z,18.57
2018-09-23T23:22:40.981Z,18.60
2018-09-23T23:25:09.796Z,18.77
2018-09-23T23:27:41.047Z,18.53
2018-09-23T23:30:10.138Z,18.77
2018-09-23T23:32:39.423Z,19.30
2018-09-23T23:35:09.515Z,19.40
2018-09-23T23:37:38.612Z,19.80
2018-09-23T23:40:08.377Z,19.47
2018-09-23T23:42:37.483Z,18.10
2018-09-23T23:45:06.658Z,18.77
2018-09-23T23:47:35.781Z,19.33
2018-09-23T23:50:05.307Z,19.30
2018-09-23T23:52:34.310Z,19.27
2018-09-23T23:55:03.414Z,18.23
2018-09-23T23:57:33.053Z,18.53
